CYYCCYVC

Guest
Details From CYYC - Calgary Intl
To CYVC - La Ronge (barber Field)
Flight Number -
Tags Generated
Created
Modified
Stats Distance 399 nm / 738 km
Max Altitude 0 ft / 0 m
Waypoints 3
Social Downloads 0
Likes 0
Share VATSIM

Download

Looking for another format? Having issues loading an existing format? Contact us
Advertisement - Login to hide

Notes

Generated

Route

CYYC VC CYVC

ID Type Via Altitude Latitude Longitude Leg Dist Tot Dist Heading (true) Name
O CYYC APT - 0 ft / 0 m 51.10417˚ -114.03028˚ - 0 nm - -
VC NDB - 0 ft / 0 m 55.08611˚ -105.31833˚ 394 nm 394 nm 49° / 56° LA RONGE NDB
O CYVC APT - 0 ft / 0 m 55.15110˚ -105.27332˚ 4 nm 398 nm 22° / 22° La Ronge (Barber Field)

Altitude Profile

Advertisement - Login to hide

Weather


0- 5 10 15 20 25 30 35+ Temperature / ° C

Clouds and Precipitation
Forecast for 2017-12-17 06:00 UTC. Updated an hour ago

Ground ~20,000 ft ~40,000 ft Winds

CYYC

Details ICAO CYYC (YYC)
Name CALGARY INTL
Region Canada
Timezone America/Edmonton (UTC-7.0)
Stats Elevation 3,557 ft / 1,084 m (AMSL)
Location 51.113197° -114.020044°
Runways 3
Magnetic Variation 14.091° E

METAR

CYYC 170600Z 20003KT 15SM BKN200 M05/M15 A2973 RMK CI5 SLP118

Decode

TAF

TAF CYYC 170541Z 1706/1806 VRB03KT P6SM SCT100 BKN200 BECMG 1712/1714 26012G22KT BECMG 1723/1801 28008KT RMK NXT FCST BY 170900Z

Decode

Departure Runways

ID Width Length Bearing (true) Bearing (mag) Surface Threshold Offset Overrun Length
07 144 ft / 44 m 6,561 ft / 2,000 m 90.76° 76.67° Asphalt 0 ft / 0 m 0 ft / 0 m
10 210 ft / 64 m 8,433 ft / 2,570 m 119.00° 104.91° Asphalt 0 ft / 0 m 0 ft / 0 m
16 200 ft / 61 m 12,703 ft / 3,872 m 179.00° 164.91° Asphalt 0 ft / 0 m 0 ft / 0 m
25 144 ft / 44 m 6,561 ft / 2,000 m 270.78° 256.69° Asphalt 0 ft / 0 m 0 ft / 0 m
28 210 ft / 64 m 8,433 ft / 2,570 m 299.02° 284.93° Asphalt 0 ft / 0 m 121 ft / 37 m
34 200 ft / 61 m 12,703 ft / 3,872 m 359.00° 344.91° Asphalt 0 ft / 0 m 0 ft / 0 m

CYVC

Details ICAO CYVC (YVC)
Name La Ronge (Barber Field)
Region Canada
Timezone America/Regina (UTC-6.0)
Stats Elevation 1,242 ft / 379 m (AMSL)
Location 55.150526° -105.265110°
Runways 2
Magnetic Variation 9.560° E

METAR

CYVC 170600Z CCA 14003KT 15SM -SN BKN014 OVC038 M08/M09 A2971 RMK SC5SC3 SLP093

Decode

TAF

TAF AMD TAF AMD CYVC 170133Z 1701/1713 VRB03KT P6SM SCT004 BKN040 TEMPO 1701/1706 2SM -SN BKN004 FM170600 VRB03KT P6SM SCT015 BKN040 TEMPO 1706/1713 2SM -SN BKN015 BECMG 1708/1710 20010KT RMK NXT FCST BY 170700Z

Decode

Destination Runways

ID Width Length Bearing (true) Bearing (mag) Surface Threshold Offset Overrun Length
10 49 ft / 15 m 2,362 ft / 720 m 116.00° 106.44° Gravel 0 ft / 0 m 0 ft / 0 m
18 151 ft / 46 m 4,997 ft / 1,523 m 189.05° 179.49° Asphalt 0 ft / 0 m 0 ft / 0 m
28 49 ft / 15 m 2,362 ft / 720 m 296.00° 286.44° Gravel 0 ft / 0 m 0 ft / 0 m
36 151 ft / 46 m 4,997 ft / 1,523 m 9.05° 359.49° Asphalt 0 ft / 0 m 0 ft / 0 m